createdAt,value
2023-02-17T00:01:32.213Z,12.57
2023-02-17T00:04:00.134Z,10.03
2023-02-17T00:06:30.950Z,19.17
2023-02-17T00:08:58.784Z,12.30
2023-02-17T00:11:26.083Z,9.03
2023-02-17T00:13:53.960Z,15.80
2023-02-17T00:16:25.930Z,12.00
2023-02-17T00:18:56.373Z,13.37
2023-02-17T00:21:26.337Z,13.03
2023-02-17T00:23:53.741Z,12.77
2023-02-17T00:26:20.815Z,13.73
2023-02-17T00:28:48.431Z,10.90
2023-02-17T00:31:20.314Z,14.13
2023-02-17T00:33:47.873Z,11.87
2023-02-17T00:36:18.963Z,11.33
2023-02-17T00:38:50.082Z,9.37
2023-02-17T00:41:18.562Z,14.03
2023-02-17T00:43:45.792Z,11.43
2023-02-17T00:46:12.718Z,10.27
2023-02-17T00:48:39.486Z,9.80
2023-02-17T00:51:06.324Z,11.70
2023-02-17T00:53:32.811Z,14.53
2023-02-17T00:55:59.288Z,10.13
2023-02-17T00:58:25.798Z,11.63
2023-02-17T01:00:52.610Z,14.70
2023-02-17T01:03:22.249Z,13.40
2023-02-17T01:05:49.329Z,13.10
2023-02-17T01:08:17.843Z,11.43
2023-02-17T01:10:46.625Z,12.10
2023-02-17T01:13:15.825Z,9.57
2023-02-17T01:15:49.557Z,10.87
2023-02-17T01:18:19.105Z,10.77
2023-02-17T01:20:45.952Z,8.83
2023-02-17T01:23:12.783Z,10.57
2023-02-17T01:25:42.646Z,10.00
2023-02-17T01:28:15.920Z,10.13
2023-02-17T01:30:42.586Z,9.80
2023-02-17T01:33:09.545Z,10.73
2023-02-17T01:35:38.995Z,10.77
2023-02-17T01:38:05.615Z,11.17
2023-02-17T01:40:33.169Z,7.87
2023-02-17T01:42:59.667Z,9.63
2023-02-17T01:45:46.127Z,12.27
2023-02-17T01:48:17.999Z,11.43
2023-02-17T01:50:52.852Z,9.20
2023-02-17T01:53:49.935Z,11.03
2023-02-17T01:56:17.889Z,15.00
2023-02-17T01:58:54.427Z,11.73
2023-02-17T02:01:21.420Z,14.93
2023-02-17T02:03:50.333Z,9.97
2023-02-17T02:06:24.814Z,8.63
2023-02-17T02:10:14.709Z,10.77
2023-02-17T02:12:43.256Z,11.50
2023-02-17T02:15:17.772Z,9.60
2023-02-17T02:22:45.977Z,15.10
2023-02-17T02:28:58.806Z,9.47
2023-02-17T02:31:59.544Z,8.27
2023-02-17T02:34:37.886Z,15.03
2023-02-17T02:37:16.527Z,6.83
2023-02-17T02:39:49.481Z,9.67
2023-02-17T02:42:24.368Z,11.60
2023-02-17T02:44:50.991Z,11.27
2023-02-17T02:47:53.461Z,7.57
2023-02-17T02:52:18.439Z,13.27
2023-02-17T02:55:15.092Z,14.67
2023-02-17T02:58:16.231Z,5.73
2023-02-17T03:01:13.268Z,8.23
2023-02-17T03:07:03.001Z,11.13
2023-02-17T03:09:30.512Z,6.37
2023-02-17T03:11:58.868Z,9.83
2023-02-17T03:14:26.443Z,11.97
2023-02-17T03:16:53.144Z,7.63
2023-02-17T03:19:24.547Z,9.53
2023-02-17T03:22:00.864Z,12.97
2023-02-17T03:24:27.526Z,10.07
2023-02-17T03:26:54.021Z,10.87
2023-02-17T03:29:20.527Z,7.87
2023-02-17T03:31:47.114Z,8.83
2023-02-17T03:34:13.676Z,8.77
2023-02-17T03:36:40.170Z,8.60
2023-02-17T03:39:06.664Z,12.93
2023-02-17T03:41:33.144Z,7.97
2023-02-17T03:43:59.626Z,9.17
2023-02-17T03:46:26.125Z,6.90
2023-02-17T03:48:52.653Z,8.20
2023-02-17T03:51:23.447Z,12.50
2023-02-17T03:53:51.084Z,7.50
2023-02-17T03:56:18.408Z,6.97
2023-02-17T03:58:45.507Z,7.90
2023-02-17T04:01:12.581Z,7.23
2023-02-17T04:03:39.941Z,7.70
2023-02-17T04:06:08.004Z,10.17
2023-02-17T04:08:35.006Z,7.93
2023-02-17T04:11:04.074Z,10.47
2023-02-17T04:13:30.779Z,9.67
2023-02-17T04:15:57.751Z,11.70
2023-02-17T04:18:24.718Z,8.60
2023-02-17T04:20:52.413Z,12.80
2023-02-17T04:23:19.496Z,22.17
2023-02-17T04:25:46.587Z,27.47
2023-02-17T04:28:14.965Z,26.97
2023-02-17T04:30:49.926Z,33.43
2023-02-17T04:33:17.419Z,28.90
2023-02-17T04:35:43.898Z,32.70
2023-02-17T04:38:11.501Z,22.57
2023-02-17T04:40:38.579Z,21.13
2023-02-17T04:43:05.386Z,12.70
2023-02-17T04:45:31.907Z,15.10
2023-02-17T04:47:58.365Z,19.93
2023-02-17T04:50:24.833Z,12.10
2023-02-17T04:52:51.376Z,7.20
2023-02-17T04:55:18.016Z,6.83
2023-02-17T04:57:44.488Z,14.30
2023-02-17T05:00:11.705Z,8.30
2023-02-17T05:02:38.261Z,9.93
2023-02-17T05:05:04.802Z,8.13
2023-02-17T05:07:31.329Z,8.60
2023-02-17T05:09:57.811Z,7.87
2023-02-17T05:12:24.335Z,10.17
2023-02-17T05:14:50.791Z,10.93
2023-02-17T05:17:17.269Z,13.23
2023-02-17T05:19:43.758Z,19.50
2023-02-17T05:22:10.214Z,25.93
2023-02-17T05:24:38.814Z,16.00
2023-02-17T05:27:05.734Z,20.50
2023-02-17T05:29:32.238Z,21.00
2023-02-17T05:31:58.742Z,16.57
2023-02-17T05:34:25.268Z,16.80
2023-02-17T05:36:51.741Z,11.33
2023-02-17T05:39:18.231Z,14.10
2023-02-17T05:41:44.707Z,9.10
2023-02-17T05:44:11.195Z,10.57
2023-02-17T05:46:37.752Z,11.13
2023-02-17T05:49:04.220Z,9.90
2023-02-17T05:51:30.702Z,12.93
2023-02-17T05:53:57.249Z,20.10
2023-02-17T05:56:23.753Z,7.83
2023-02-17T05:58:50.246Z,9.20
2023-02-17T06:01:16.808Z,10.37
2023-02-17T06:03:43.271Z,11.60
2023-02-17T06:06:09.758Z,12.10
2023-02-17T06:08:36.983Z,11.13
2023-02-17T06:11:03.944Z,14.43
2023-02-17T06:13:30.416Z,26.83
2023-02-17T06:15:56.949Z,14.40
2023-02-17T06:18:23.483Z,11.70
2023-02-17T06:20:50.233Z,9.00
2023-02-17T06:23:16.866Z,10.90
2023-02-17T06:25:43.343Z,14.23
2023-02-17T06:28:09.832Z,15.33
2023-02-17T06:30:38.923Z,20.00
2023-02-17T06:33:05.426Z,10.33
2023-02-17T06:35:32.364Z,16.10
2023-02-17T06:37:58.997Z,8.50
2023-02-17T06:40:27.977Z,9.33
2023-02-17T06:42:55.209Z,8.27
2023-02-17T06:45:21.657Z,6.77
2023-02-17T06:47:48.280Z,9.07
2023-02-17T06:50:15.236Z,7.33
2023-02-17T06:52:41.849Z,15.93
2023-02-17T06:55:08.819Z,7.33
2023-02-17T06:57:35.299Z,22.27
2023-02-17T07:00:03.774Z,7.47
2023-02-17T07:02:30.427Z,8.23
2023-02-17T07:04:56.915Z,8.33
2023-02-17T07:07:23.405Z,16.90
2023-02-17T07:09:49.868Z,8.67
2023-02-17T07:12:16.408Z,9.83
2023-02-17T07:14:43.312Z,7.87
2023-02-17T07:17:09.824Z,7.77
2023-02-17T07:19:36.293Z,7.47
2023-02-17T07:22:02.787Z,8.10
2023-02-17T07:24:29.272Z,11.17
2023-02-17T07:26:55.781Z,19.07
2023-02-17T07:29:23.249Z,22.20
2023-02-17T07:31:49.812Z,26.17
2023-02-17T07:34:16.313Z,20.80
2023-02-17T07:36:42.793Z,15.50
2023-02-17T07:39:09.247Z,13.07
2023-02-17T07:41:35.743Z,15.47
2023-02-17T07:44:02.307Z,28.03
2023-02-17T07:46:28.769Z,20.50
2023-02-17T07:48:57.481Z,37.97
2023-02-17T07:51:24.478Z,39.13
2023-02-17T07:53:52.536Z,29.57
2023-02-17T07:56:21.808Z,33.67
2023-02-17T07:58:49.316Z,21.83
2023-02-17T08:01:23.162Z,25.00
2023-02-17T08:03:50.239Z,19.87
2023-02-17T08:06:21.841Z,25.03
2023-02-17T08:09:08.679Z,25.00
2023-02-17T08:11:56.646Z,28.17
2023-02-17T08:14:26.070Z,21.50
2023-02-17T08:16:54.943Z,24.73
2023-02-17T08:19:21.802Z,26.33
2023-02-17T08:21:48.533Z,21.33
2023-02-17T08:24:18.969Z,25.27
2023-02-17T08:26:46.341Z,20.60
2023-02-17T08:29:13.070Z,14.80
2023-02-17T08:31:40.429Z,17.20
2023-02-17T08:34:10.746Z,20.73
2023-02-17T08:36:37.742Z,22.13
2023-02-17T08:39:13.845Z,25.07
2023-02-17T08:41:41.629Z,22.57
2023-02-17T08:44:17.927Z,33.13
2023-02-17T08:46:47.222Z,27.47
2023-02-17T08:49:18.487Z,28.37
2023-02-17T08:51:45.834Z,41.67
2023-02-17T08:54:14.304Z,32.90
2023-02-17T08:56:42.219Z,26.77
2023-02-17T08:59:11.020Z,24.33
2023-02-17T09:01:39.396Z,30.80
2023-02-17T09:04:08.760Z,39.00
2023-02-17T09:06:55.891Z,31.27
2023-02-17T09:09:28.502Z,21.20
2023-02-17T09:11:57.984Z,22.03
2023-02-17T09:14:25.254Z,27.13
2023-02-17T09:16:55.572Z,27.07
2023-02-17T09:19:22.751Z,30.50
2023-02-17T09:21:49.499Z,27.47
2023-02-17T09:24:17.787Z,27.23
2023-02-17T09:26:44.760Z,34.07
2023-02-17T09:29:11.542Z,21.77
2023-02-17T09:31:38.203Z,31.67
2023-02-17T09:34:05.056Z,22.33
2023-02-17T09:36:38.353Z,18.43
2023-02-17T09:39:05.071Z,20.30
2023-02-17T09:41:43.841Z,24.57
2023-02-17T09:44:25.133Z,15.67
2023-02-17T09:47:13.148Z,10.87
2023-02-17T09:53:05.374Z,11.63
2023-02-17T09:55:40.968Z,12.43
2023-02-17T10:00:15.186Z,18.05
2023-02-17T10:03:06.090Z,16.23
2023-02-17T10:05:44.932Z,28.03
2023-02-17T10:08:21.827Z,29.53
2023-02-17T10:11:22.572Z,20.35
2023-02-17T10:13:54.264Z,23.00
2023-02-17T10:16:30.246Z,12.80
2023-02-17T10:19:09.315Z,8.25
2023-02-17T10:22:02.084Z,11.95
2023-02-17T10:24:28.615Z,5.78
2023-02-17T10:33:35.276Z,7.12
2023-02-17T10:37:48.898Z,11.50
2023-02-17T10:40:23.936Z,6.97
2023-02-17T10:43:01.574Z,17.12
2023-02-17T10:45:48.734Z,9.93
2023-02-17T10:48:28.314Z,8.90
2023-02-17T10:51:00.969Z,4.68
2023-02-17T10:53:37.499Z,9.02
2023-02-17T10:56:17.836Z,5.55
2023-02-17T10:59:19.794Z,24.87
2023-02-17T11:01:46.791Z,6.50
2023-02-17T11:04:14.109Z,13.45
2023-02-17T11:06:50.678Z,6.68
2023-02-17T11:09:27.971Z,9.98
2023-02-17T11:12:20.062Z,13.23
2023-02-17T11:14:51.409Z,7.32
2023-02-17T11:17:40.283Z,12.88
2023-02-17T11:20:49.131Z,7.03
2023-02-17T11:23:24.791Z,7.12
2023-02-17T11:26:28.814Z,9.73
2023-02-17T11:29:10.134Z,13.57
2023-02-17T11:31:37.210Z,5.85
2023-02-17T11:34:24.071Z,7.05
2023-02-17T11:37:23.681Z,10.75
2023-02-17T11:39:53.605Z,7.07
2023-02-17T11:42:29.882Z,5.90
2023-02-17T11:45:00.523Z,3.67
2023-02-17T11:48:04.304Z,4.68
2023-02-17T11:53:22.603Z,6.25
2023-02-17T11:56:45.191Z,6.50
2023-02-17T12:00:55.144Z,5.70
2023-02-17T12:05:14.397Z,3.78
2023-02-17T12:09:58.359Z,8.55
2023-02-17T12:14:19.217Z,10.05
2023-02-17T12:19:39.584Z,7.57
2023-02-17T12:22:32.216Z,6.72
2023-02-17T12:25:25.973Z,8.70
2023-02-17T12:30:48.138Z,5.65
2023-02-17T12:34:58.268Z,3.37
2023-02-17T12:37:32.611Z,6.37
2023-02-17T12:42:53.089Z,11.15
2023-02-17T12:45:32.370Z,11.32
2023-02-17T12:48:18.735Z,6.15
2023-02-17T12:51:31.147Z,8.50
2023-02-17T12:54:42.838Z,4.15
2023-02-17T12:57:23.394Z,10.32
2023-02-17T12:59:53.054Z,7.53
2023-02-17T13:02:25.549Z,6.87
2023-02-17T13:04:56.948Z,6.37
2023-02-17T13:07:44.657Z,4.55
2023-02-17T13:11:25.862Z,9.93
2023-02-17T13:13:52.371Z,19.73
2023-02-17T13:16:18.905Z,9.43
2023-02-17T13:18:51.618Z,5.53
2023-02-17T13:21:36.198Z,5.57
2023-02-17T13:24:37.079Z,9.43
2023-02-17T13:27:39.299Z,9.10
2023-02-17T13:31:16.606Z,6.45
2023-02-17T13:33:56.751Z,5.90
2023-02-17T13:36:44.106Z,7.30
2023-02-17T13:39:34.415Z,7.22
2023-02-17T13:42:01.728Z,7.40
2023-02-17T13:44:38.634Z,7.85
2023-02-17T13:47:28.751Z,7.75
2023-02-17T13:49:56.974Z,6.68
2023-02-17T13:52:27.665Z,13.13
2023-02-17T13:55:01.230Z,8.38
2023-02-17T13:57:36.821Z,6.93
2023-02-17T14:00:10.491Z,8.95
2023-02-17T14:02:46.500Z,6.60
2023-02-17T14:07:35.778Z,2.60
2023-02-17T14:10:02.264Z,10.82
2023-02-17T14:12:29.046Z,4.00
2023-02-17T14:14:55.638Z,8.32
2023-02-17T14:17:33.108Z,9.23
2023-02-17T14:20:00.102Z,12.23
2023-02-17T14:22:33.352Z,4.22
2023-02-17T14:25:24.901Z,15.45
2023-02-17T14:27:52.086Z,5.75
2023-02-17T14:30:37.614Z,7.60
2023-02-17T14:33:26.416Z,7.05
2023-02-17T14:35:57.530Z,5.50
2023-02-17T14:38:38.995Z,8.55
2023-02-17T14:41:08.764Z,7.65
2023-02-17T14:43:35.784Z,6.72
2023-02-17T14:46:02.288Z,6.28
2023-02-17T14:48:28.796Z,8.30
2023-02-17T14:50:58.399Z,8.77
2023-02-17T14:53:30.766Z,8.95
2023-02-17T14:56:36.196Z,13.50
2023-02-17T14:59:03.417Z,5.70
2023-02-17T15:01:30.082Z,7.10
2023-02-17T15:03:56.621Z,5.15
2023-02-17T15:06:32.604Z,5.20
2023-02-17T15:09:00.761Z,13.32
2023-02-17T15:11:36.244Z,8.95
2023-02-17T15:14:03.741Z,16.25
2023-02-17T15:16:30.867Z,5.30
2023-02-17T15:18:57.890Z,16.77
2023-02-17T15:21:31.614Z,10.67
2023-02-17T15:24:03.749Z,7.03
2023-02-17T15:26:30.695Z,7.83
2023-02-17T15:28:58.197Z,7.73
2023-02-17T15:31:29.266Z,6.77
2023-02-17T15:33:58.864Z,8.77
2023-02-17T15:36:27.958Z,4.80
2023-02-17T15:38:54.683Z,7.57
2023-02-17T15:41:25.275Z,15.97
2023-02-17T15:43:54.942Z,24.63
2023-02-17T15:46:32.115Z,26.13
2023-02-17T15:48:59.269Z,10.23
2023-02-17T15:51:25.828Z,20.67
2023-02-17T15:53:52.299Z,12.50
2023-02-17T15:56:35.950Z,12.10
2023-02-17T15:59:14.846Z,17.70
2023-02-17T16:01:41.702Z,11.07
2023-02-17T16:04:14.323Z,13.23
2023-02-17T16:06:41.114Z,12.80
2023-02-17T16:09:08.781Z,6.90
2023-02-17T16:11:47.791Z,14.70
2023-02-17T16:14:34.395Z,10.13
2023-02-17T16:17:03.615Z,18.00
2023-02-17T16:19:30.867Z,14.77
2023-02-17T16:21:57.327Z,11.00
2023-02-17T16:24:24.568Z,10.87
2023-02-17T16:26:51.073Z,12.03
2023-02-17T16:29:21.186Z,8.97
2023-02-17T16:31:48.687Z,10.03
2023-02-17T16:34:23.356Z,13.17
2023-02-17T16:36:53.030Z,8.83
2023-02-17T16:39:21.224Z,11.20
2023-02-17T16:41:49.537Z,9.10
2023-02-17T16:44:19.809Z,7.77
2023-02-17T16:46:53.273Z,9.73
2023-02-17T16:49:31.807Z,8.17
2023-02-17T16:52:24.351Z,12.20
2023-02-17T16:54:53.006Z,17.73
2023-02-17T16:57:20.272Z,20.00
2023-02-17T16:59:47.219Z,26.57
2023-02-17T17:02:13.933Z,18.00
2023-02-17T17:04:40.446Z,13.20
2023-02-17T17:07:07.337Z,16.83
2023-02-17T17:09:33.812Z,14.20
2023-02-17T17:12:00.273Z,15.53
2023-02-17T17:14:26.748Z,14.23
2023-02-17T17:16:59.755Z,14.33
2023-02-17T17:19:26.252Z,16.20
2023-02-17T17:21:52.716Z,12.70
2023-02-17T17:24:19.343Z,15.53
2023-02-17T17:26:49.336Z,14.07
2023-02-17T17:29:18.345Z,12.07
2023-02-17T17:31:45.148Z,12.63
2023-02-17T17:34:11.717Z,14.63
2023-02-17T17:36:45.500Z,8.00
2023-02-17T17:39:21.617Z,12.97
2023-02-17T17:41:49.974Z,13.20
2023-02-17T17:44:17.249Z,16.33
2023-02-17T17:46:44.305Z,18.97
2023-02-17T17:49:14.193Z,25.50
2023-02-17T17:51:41.016Z,26.93
2023-02-17T17:54:07.837Z,20.13
2023-02-17T17:56:38.698Z,14.67
2023-02-17T17:59:06.196Z,17.13
2023-02-17T18:01:33.567Z,16.47
2023-02-17T18:04:00.615Z,26.77
2023-02-17T18:06:41.905Z,18.93
2023-02-17T18:09:30.273Z,12.93
2023-02-17T18:12:03.765Z,17.33
2023-02-17T18:14:31.252Z,13.73
2023-02-17T18:16:58.396Z,19.60
2023-02-17T18:19:25.189Z,16.67
2023-02-17T18:21:51.953Z,14.30
2023-02-17T18:24:18.399Z,12.47
2023-02-17T18:26:44.868Z,13.40
2023-02-17T18:29:11.306Z,12.87
2023-02-17T18:31:38.066Z,16.40
2023-02-17T18:34:06.009Z,14.33
2023-02-17T18:36:32.458Z,13.43
2023-02-17T18:38:58.963Z,11.87
2023-02-17T18:41:29.252Z,16.57
2023-02-17T18:43:58.021Z,15.73
2023-02-17T18:46:26.581Z,17.27
2023-02-17T18:48:57.046Z,12.97
2023-02-17T18:51:26.690Z,15.57
2023-02-17T18:53:55.715Z,14.23
2023-02-17T18:56:26.870Z,18.07
2023-02-17T18:58:54.963Z,25.10
2023-02-17T19:01:38.641Z,15.53
2023-02-17T19:04:05.876Z,23.50
2023-02-17T19:06:34.763Z,12.67
2023-02-17T19:09:03.599Z,29.50
2023-02-17T19:11:30.423Z,13.57
2023-02-17T19:13:56.878Z,18.93
2023-02-17T19:16:27.658Z,10.67
2023-02-17T19:18:56.248Z,63.70
2023-02-17T19:21:23.803Z,38.03
2023-02-17T19:23:51.364Z,20.80
2023-02-17T19:26:19.370Z,19.17
2023-02-17T19:28:46.674Z,23.97
2023-02-17T19:31:17.682Z,17.03
2023-02-17T19:33:44.990Z,19.03
2023-02-17T19:36:18.874Z,18.20
2023-02-17T19:38:46.714Z,16.50
2023-02-17T19:41:13.919Z,23.03
2023-02-17T19:43:41.953Z,24.67
2023-02-17T19:46:12.763Z,22.47
2023-02-17T19:48:39.980Z,18.47
2023-02-17T19:51:08.916Z,18.47
2023-02-17T19:53:35.984Z,17.17
2023-02-17T19:56:21.283Z,29.17
2023-02-17T19:58:48.810Z,35.83
2023-02-17T20:01:22.662Z,20.80
2023-02-17T20:03:50.079Z,20.30
2023-02-17T20:06:26.526Z,20.50
2023-02-17T20:08:59.301Z,20.60
2023-02-17T20:11:27.631Z,21.70
2023-02-17T20:13:56.944Z,16.00
2023-02-17T20:16:23.671Z,17.70
2023-02-17T20:18:50.667Z,19.73
2023-02-17T20:21:23.868Z,13.90
2023-02-17T20:23:51.723Z,13.50
2023-02-17T20:26:24.988Z,22.10
2023-02-17T20:28:51.921Z,16.60
2023-02-17T20:31:19.645Z,14.23
2023-02-17T20:33:46.832Z,14.93
2023-02-17T20:36:13.423Z,18.77
2023-02-17T20:38:40.844Z,14.07
2023-02-17T20:41:13.545Z,11.97
2023-02-17T20:43:40.360Z,15.10
2023-02-17T20:46:07.615Z,12.37
2023-02-17T20:48:34.340Z,16.20
2023-02-17T20:51:02.779Z,16.87
2023-02-17T20:53:29.445Z,12.40
2023-02-17T20:55:56.232Z,18.03
2023-02-17T20:58:22.698Z,18.50
2023-02-17T21:00:49.613Z,22.50
2023-02-17T21:03:16.161Z,18.20
2023-02-17T21:05:42.654Z,16.23
2023-02-17T21:08:09.299Z,18.67
2023-02-17T21:10:36.226Z,12.27
2023-02-17T21:13:02.738Z,16.57
2023-02-17T21:15:29.188Z,18.20
2023-02-17T21:17:55.648Z,13.33
2023-02-17T21:20:22.975Z,20.70
2023-02-17T21:22:50.271Z,22.20
2023-02-17T21:25:17.020Z,19.73
2023-02-17T21:27:43.586Z,20.30
2023-02-17T21:30:11.362Z,15.87
2023-02-17T21:32:38.068Z,16.80
2023-02-17T21:35:05.572Z,21.33
2023-02-17T21:37:32.113Z,18.00
2023-02-17T21:39:58.588Z,20.83
2023-02-17T21:42:45.667Z,34.33
2023-02-17T21:45:12.457Z,16.83
2023-02-17T21:47:38.907Z,23.40
2023-02-17T21:50:06.652Z,15.97
2023-02-17T21:52:33.126Z,23.40
2023-02-17T21:55:00.237Z,31.17
2023-02-17T21:57:26.723Z,21.00
2023-02-17T21:59:53.238Z,15.37
2023-02-17T22:02:19.711Z,14.93
2023-02-17T22:04:46.146Z,12.60
2023-02-17T22:07:12.622Z,14.37
2023-02-17T22:09:39.243Z,36.73
2023-02-17T22:12:06.164Z,26.47
2023-02-17T22:14:32.640Z,20.27
2023-02-17T22:16:59.123Z,13.57
2023-02-17T22:19:25.813Z,19.43
2023-02-17T22:21:52.287Z,12.30
2023-02-17T22:24:20.023Z,12.47
2023-02-17T22:26:47.907Z,16.70
2023-02-17T22:29:14.554Z,19.53
2023-02-17T22:31:41.226Z,24.43
2023-02-17T22:34:11.121Z,13.87
2023-02-17T22:36:37.787Z,16.90
2023-02-17T22:39:07.936Z,16.87
2023-02-17T22:41:35.677Z,11.70
2023-02-17T22:44:02.969Z,16.17
2023-02-17T22:46:29.745Z,14.40
2023-02-17T22:48:57.915Z,15.90
2023-02-17T22:51:29.242Z,13.70
2023-02-17T22:53:56.756Z,20.17
2023-02-17T22:56:23.846Z,11.60
2023-02-17T22:58:55.037Z,9.53
2023-02-17T23:01:21.989Z,14.37
2023-02-17T23:03:51.728Z,11.83
2023-02-17T23:06:32.750Z,14.00
2023-02-17T23:09:01.389Z,10.87
2023-02-17T23:11:50.177Z,10.80
2023-02-17T23:14:37.069Z,11.30
2023-02-17T23:17:11.526Z,12.03
2023-02-17T23:19:40.201Z,10.77
2023-02-17T23:22:15.336Z,11.47
2023-02-17T23:24:44.387Z,11.03
2023-02-17T23:27:10.920Z,12.13
2023-02-17T23:29:40.449Z,11.23
2023-02-17T23:32:07.635Z,7.93
2023-02-17T23:34:34.508Z,14.57
2023-02-17T23:37:00.995Z,11.83
2023-02-17T23:39:27.477Z,8.57
2023-02-17T23:41:53.953Z,10.20
2023-02-17T23:44:20.472Z,10.33
2023-02-17T23:46:46.961Z,8.17
2023-02-17T23:49:16.426Z,8.20
2023-02-17T23:51:43.569Z,10.73
2023-02-17T23:54:10.189Z,9.30
2023-02-17T23:56:37.001Z,9.47
2023-02-17T23:59:03.839Z,9.53
